sensor_id;sensor_type;location;lat;lon;timestamp;P1;durP1;ratioP1;P2;durP2;ratioP2
19038;SDS011;9652;49.014;12.052;2023-03-30T00:00:33;14.40;;;8.40;;
19038;SDS011;9652;49.014;12.052;2023-03-30T00:03:00;10.40;;;8.57;;
19038;SDS011;9652;49.014;12.052;2023-03-30T00:05:28;12.20;;;8.77;;
19038;SDS011;9652;49.014;12.052;2023-03-30T00:07:57;12.40;;;9.27;;
19038;SDS011;9652;49.014;12.052;2023-03-30T00:10:24;13.33;;;8.23;;
19038;SDS011;9652;49.014;12.052;2023-03-30T00:12:54;13.07;;;9.23;;
19038;SDS011;9652;49.014;12.052;2023-03-30T00:15:23;11.93;;;8.90;;
19038;SDS011;9652;49.014;12.052;2023-03-30T00:17:50;11.27;;;8.90;;
19038;SDS011;9652;49.014;12.052;2023-03-30T00:20:19;13.13;;;9.40;;
19038;SDS011;9652;49.014;12.052;2023-03-30T00:22:47;12.10;;;9.60;;
19038;SDS011;9652;49.014;12.052;2023-03-30T00:25:15;12.77;;;9.83;;
19038;SDS011;9652;49.014;12.052;2023-03-30T00:27:43;12.67;;;9.40;;
19038;SDS011;9652;49.014;12.052;2023-03-30T00:30:13;12.70;;;8.90;;
19038;SDS011;9652;49.014;12.052;2023-03-30T00:32:43;13.43;;;8.73;;
19038;SDS011;9652;49.014;12.052;2023-03-30T00:35:11;13.17;;;9.77;;
19038;SDS011;9652;49.014;12.052;2023-03-30T00:37:40;14.20;;;9.30;;
19038;SDS011;9652;49.014;12.052;2023-03-30T00:40:13;13.37;;;9.80;;
19038;SDS011;9652;49.014;12.052;2023-03-30T00:42:43;15.03;;;10.20;;
19038;SDS011;9652;49.014;12.052;2023-03-30T00:45:16;13.53;;;9.17;;
19038;SDS011;9652;49.014;12.052;2023-03-30T00:47:51;12.40;;;9.50;;
19038;SDS011;9652;49.014;12.052;2023-03-30T00:50:26;14.53;;;8.73;;
19038;SDS011;9652;49.014;12.052;2023-03-30T00:53:00;11.93;;;8.33;;
19038;SDS011;9652;49.014;12.052;2023-03-30T00:55:34;11.80;;;8.23;;
19038;SDS011;9652;49.014;12.052;2023-03-30T00:58:05;11.57;;;8.63;;
19038;SDS011;9652;49.014;12.052;2023-03-30T01:00:36;12.57;;;8.57;;
19038;SDS011;9652;49.014;12.052;2023-03-30T01:03:10;10.73;;;8.10;;
19038;SDS011;9652;49.014;12.052;2023-03-30T01:05:42;11.63;;;8.70;;
19038;SDS011;9652;49.014;12.052;2023-03-30T01:08:11;12.37;;;8.53;;
19038;SDS011;9652;49.014;12.052;2023-03-30T01:10:41;13.03;;;8.50;;
19038;SDS011;9652;49.014;12.052;2023-03-30T01:13:08;10.23;;;8.53;;
19038;SDS011;9652;49.014;12.052;2023-03-30T01:15:41;10.43;;;7.53;;
19038;SDS011;9652;49.014;12.052;2023-03-30T01:18:28;10.03;;;8.23;;
19038;SDS011;9652;49.014;12.052;2023-03-30T01:21:27;12.13;;;8.27;;
19038;SDS011;9652;49.014;12.052;2023-03-30T01:27:44;9.03;;;7.03;;
19038;SDS011;9652;49.014;12.052;2023-03-30T01:30:52;9.20;;;6.87;;
19038;SDS011;9652;49.014;12.052;2023-03-30T01:33:53;10.30;;;7.37;;
19038;SDS011;9652;49.014;12.052;2023-03-30T01:36:54;9.27;;;6.57;;
19038;SDS011;9652;49.014;12.052;2023-03-30T01:40:00;9.17;;;6.83;;
19038;SDS011;9652;49.014;12.052;2023-03-30T01:42:34;11.33;;;7.33;;
19038;SDS011;9652;49.014;12.052;2023-03-30T01:45:11;10.17;;;7.60;;
19038;SDS011;9652;49.014;12.052;2023-03-30T01:47:49;9.77;;;7.57;;
19038;SDS011;9652;49.014;12.052;2023-03-30T01:50:23;11.17;;;7.40;;
19038;SDS011;9652;49.014;12.052;2023-03-30T01:52:57;9.43;;;7.20;;
19038;SDS011;9652;49.014;12.052;2023-03-30T01:55:32;9.83;;;7.80;;
19038;SDS011;9652;49.014;12.052;2023-03-30T01:58:09;9.87;;;7.60;;
19038;SDS011;9652;49.014;12.052;2023-03-30T02:00:42;10.27;;;8.53;;
19038;SDS011;9652;49.014;12.052;2023-03-30T02:03:15;9.67;;;8.07;;
19038;SDS011;9652;49.014;12.052;2023-03-30T02:05:47;10.47;;;7.70;;
19038;SDS011;9652;49.014;12.052;2023-03-30T02:08:20;11.23;;;7.27;;
19038;SDS011;9652;49.014;12.052;2023-03-30T02:10:53;10.60;;;8.17;;
19038;SDS011;9652;49.014;12.052;2023-03-30T02:13:24;10.93;;;8.07;;
19038;SDS011;9652;49.014;12.052;2023-03-30T02:15:55;12.83;;;8.07;;
19038;SDS011;9652;49.014;12.052;2023-03-30T02:18:27;10.10;;;8.07;;
19038;SDS011;9652;49.014;12.052;2023-03-30T02:20:55;9.93;;;8.03;;
19038;SDS011;9652;49.014;12.052;2023-03-30T02:23:24;11.00;;;7.97;;
19038;SDS011;9652;49.014;12.052;2023-03-30T02:26:00;10.23;;;7.83;;
19038;SDS011;9652;49.014;12.052;2023-03-30T02:28:28;9.03;;;7.43;;
19038;SDS011;9652;49.014;12.052;2023-03-30T02:30:55;11.80;;;8.73;;
19038;SDS011;9652;49.014;12.052;2023-03-30T02:33:27;11.90;;;8.33;;
19038;SDS011;9652;49.014;12.052;2023-03-30T02:36:12;10.20;;;8.13;;
19038;SDS011;9652;49.014;12.052;2023-03-30T02:39:04;9.67;;;8.00;;
19038;SDS011;9652;49.014;12.052;2023-03-30T02:41:55;10.00;;;7.63;;
19038;SDS011;9652;49.014;12.052;2023-03-30T02:44:47;11.83;;;8.10;;
19038;SDS011;9652;49.014;12.052;2023-03-30T02:47:31;14.33;;;8.20;;
19038;SDS011;9652;49.014;12.052;2023-03-30T02:50:08;10.20;;;8.27;;
19038;SDS011;9652;49.014;12.052;2023-03-30T02:52:49;11.97;;;9.37;;
19038;SDS011;9652;49.014;12.052;2023-03-30T02:55:28;11.27;;;7.40;;
19038;SDS011;9652;49.014;12.052;2023-03-30T02:58:27;11.50;;;8.53;;
19038;SDS011;9652;49.014;12.052;2023-03-30T03:01:12;9.17;;;7.73;;
19038;SDS011;9652;49.014;12.052;2023-03-30T03:03:52;10.43;;;7.70;;
19038;SDS011;9652;49.014;12.052;2023-03-30T03:06:25;11.53;;;8.30;;
19038;SDS011;9652;49.014;12.052;2023-03-30T03:08:54;9.50;;;7.30;;
19038;SDS011;9652;49.014;12.052;2023-03-30T03:11:27;12.13;;;8.00;;
19038;SDS011;9652;49.014;12.052;2023-03-30T03:13:55;9.67;;;8.10;;
19038;SDS011;9652;49.014;12.052;2023-03-30T03:16:24;13.47;;;8.80;;
19038;SDS011;9652;49.014;12.052;2023-03-30T03:19:08;11.40;;;8.07;;
19038;SDS011;9652;49.014;12.052;2023-03-30T03:21:37;8.67;;;6.90;;
19038;SDS011;9652;49.014;12.052;2023-03-30T03:24:05;10.53;;;7.77;;
19038;SDS011;9652;49.014;12.052;2023-03-30T03:26:55;11.00;;;7.83;;
19038;SDS011;9652;49.014;12.052;2023-03-30T03:29:25;12.30;;;9.00;;
19038;SDS011;9652;49.014;12.052;2023-03-30T03:31:53;9.87;;;7.97;;
19038;SDS011;9652;49.014;12.052;2023-03-30T03:34:23;11.47;;;8.83;;
19038;SDS011;9652;49.014;12.052;2023-03-30T03:36:56;10.30;;;7.70;;
19038;SDS011;9652;49.014;12.052;2023-03-30T03:39:26;10.90;;;7.63;;
19038;SDS011;9652;49.014;12.052;2023-03-30T03:42:02;10.00;;;8.27;;
19038;SDS011;9652;49.014;12.052;2023-03-30T03:44:31;11.37;;;8.37;;
19038;SDS011;9652;49.014;12.052;2023-03-30T03:46:58;11.23;;;8.07;;
19038;SDS011;9652;49.014;12.052;2023-03-30T03:49:25;10.43;;;7.03;;
19038;SDS011;9652;49.014;12.052;2023-03-30T03:51:52;13.30;;;8.10;;
19038;SDS011;9652;49.014;12.052;2023-03-30T03:54:19;10.60;;;7.23;;
19038;SDS011;9652;49.014;12.052;2023-03-30T03:56:49;9.27;;;8.27;;
19038;SDS011;9652;49.014;12.052;2023-03-30T03:59:17;10.33;;;8.27;;
19038;SDS011;9652;49.014;12.052;2023-03-30T04:01:47;12.17;;;7.77;;
19038;SDS011;9652;49.014;12.052;2023-03-30T04:04:14;9.67;;;7.73;;
19038;SDS011;9652;49.014;12.052;2023-03-30T04:06:41;13.70;;;8.47;;
19038;SDS011;9652;49.014;12.052;2023-03-30T04:09:08;9.03;;;7.30;;
19038;SDS011;9652;49.014;12.052;2023-03-30T04:11:59;9.50;;;7.53;;
19038;SDS011;9652;49.014;12.052;2023-03-30T04:14:42;10.37;;;7.63;;
19038;SDS011;9652;49.014;12.052;2023-03-30T04:17:26;9.23;;;7.60;;
19038;SDS011;9652;49.014;12.052;2023-03-30T04:20:14;9.13;;;7.37;;
19038;SDS011;9652;49.014;12.052;2023-03-30T04:23:03;10.53;;;8.07;;
19038;SDS011;9652;49.014;12.052;2023-03-30T04:26:09;10.17;;;8.07;;
19038;SDS011;9652;49.014;12.052;2023-03-30T04:28:58;8.33;;;7.47;;
19038;SDS011;9652;49.014;12.052;2023-03-30T04:32:00;9.63;;;7.47;;
19038;SDS011;9652;49.014;12.052;2023-03-30T04:34:55;9.20;;;6.70;;
19038;SDS011;9652;49.014;12.052;2023-03-30T04:37:22;11.33;;;8.27;;
19038;SDS011;9652;49.014;12.052;2023-03-30T04:40:32;9.33;;;7.23;;
19038;SDS011;9652;49.014;12.052;2023-03-30T04:43:18;10.10;;;7.83;;
19038;SDS011;9652;49.014;12.052;2023-03-30T04:46:03;10.03;;;7.10;;
19038;SDS011;9652;49.014;12.052;2023-03-30T04:48:55;9.23;;;6.90;;
19038;SDS011;9652;49.014;12.052;2023-03-30T04:51:45;12.63;;;7.90;;
19038;SDS011;9652;49.014;12.052;2023-03-30T04:54:31;8.97;;;7.40;;
19038;SDS011;9652;49.014;12.052;2023-03-30T04:57:17;9.00;;;7.03;;
19038;SDS011;9652;49.014;12.052;2023-03-30T05:00:05;10.17;;;7.43;;
19038;SDS011;9652;49.014;12.052;2023-03-30T05:02:54;9.47;;;7.93;;
19038;SDS011;9652;49.014;12.052;2023-03-30T05:05:44;11.07;;;7.57;;
19038;SDS011;9652;49.014;12.052;2023-03-30T05:08:35;8.60;;;7.20;;
19038;SDS011;9652;49.014;12.052;2023-03-30T05:11:14;12.37;;;8.43;;
19038;SDS011;9652;49.014;12.052;2023-03-30T05:13:44;9.47;;;7.50;;
19038;SDS011;9652;49.014;12.052;2023-03-30T05:16:29;11.17;;;7.83;;
19038;SDS011;9652;49.014;12.052;2023-03-30T05:19:15;12.57;;;7.23;;
19038;SDS011;9652;49.014;12.052;2023-03-30T05:22:01;9.50;;;6.80;;
19038;SDS011;9652;49.014;12.052;2023-03-30T05:24:59;9.13;;;6.47;;
19038;SDS011;9652;49.014;12.052;2023-03-30T05:28:04;7.77;;;6.77;;
19038;SDS011;9652;49.014;12.052;2023-03-30T05:31:01;9.80;;;7.07;;
19038;SDS011;9652;49.014;12.052;2023-03-30T05:33:47;11.77;;;6.83;;
19038;SDS011;9652;49.014;12.052;2023-03-30T05:36:30;10.07;;;7.63;;
19038;SDS011;9652;49.014;12.052;2023-03-30T05:39:28;8.40;;;6.77;;
19038;SDS011;9652;49.014;12.052;2023-03-30T05:41:59;7.70;;;6.80;;
19038;SDS011;9652;49.014;12.052;2023-03-30T05:44:45;8.97;;;7.10;;
19038;SDS011;9652;49.014;12.052;2023-03-30T05:47:47;10.57;;;7.10;;
19038;SDS011;9652;49.014;12.052;2023-03-30T05:50:53;8.53;;;6.57;;
19038;SDS011;9652;49.014;12.052;2023-03-30T05:53:31;8.00;;;6.83;;
19038;SDS011;9652;49.014;12.052;2023-03-30T05:56:22;8.47;;;7.13;;
19038;SDS011;9652;49.014;12.052;2023-03-30T05:59:00;10.97;;;7.40;;
19038;SDS011;9652;49.014;12.052;2023-03-30T06:01:40;7.87;;;6.93;;
19038;SDS011;9652;49.014;12.052;2023-03-30T06:04:07;10.60;;;7.10;;
19038;SDS011;9652;49.014;12.052;2023-03-30T06:06:35;11.33;;;7.60;;
19038;SDS011;9652;49.014;12.052;2023-03-30T06:09:03;7.83;;;6.87;;
19038;SDS011;9652;49.014;12.052;2023-03-30T06:11:32;7.80;;;6.13;;
19038;SDS011;9652;49.014;12.052;2023-03-30T06:14:23;9.20;;;6.83;;
19038;SDS011;9652;49.014;12.052;2023-03-30T06:17:12;11.33;;;6.57;;
19038;SDS011;9652;49.014;12.052;2023-03-30T06:19:41;8.70;;;7.13;;
19038;SDS011;9652;49.014;12.052;2023-03-30T06:22:08;10.97;;;7.73;;
19038;SDS011;9652;49.014;12.052;2023-03-30T06:24:58;9.87;;;7.37;;
19038;SDS011;9652;49.014;12.052;2023-03-30T06:27:25;10.10;;;8.00;;
19038;SDS011;9652;49.014;12.052;2023-03-30T06:29:57;8.77;;;7.23;;
19038;SDS011;9652;49.014;12.052;2023-03-30T06:32:24;9.97;;;7.80;;
19038;SDS011;9652;49.014;12.052;2023-03-30T06:35:10;10.57;;;7.67;;
19038;SDS011;9652;49.014;12.052;2023-03-30T06:37:40;9.13;;;6.80;;
19038;SDS011;9652;49.014;12.052;2023-03-30T06:40:07;10.77;;;8.10;;
19038;SDS011;9652;49.014;12.052;2023-03-30T06:42:37;10.43;;;8.37;;
19038;SDS011;9652;49.014;12.052;2023-03-30T06:45:20;9.83;;;6.53;;
19038;SDS011;9652;49.014;12.052;2023-03-30T06:47:48;8.70;;;7.00;;
19038;SDS011;9652;49.014;12.052;2023-03-30T06:50:15;9.23;;;6.93;;
19038;SDS011;9652;49.014;12.052;2023-03-30T06:52:59;9.77;;;6.93;;
19038;SDS011;9652;49.014;12.052;2023-03-30T06:55:33;9.83;;;8.00;;
19038;SDS011;9652;49.014;12.052;2023-03-30T06:58:01;11.20;;;7.57;;
19038;SDS011;9652;49.014;12.052;2023-03-30T07:00:29;11.43;;;7.70;;
19038;SDS011;9652;49.014;12.052;2023-03-30T07:03:34;8.93;;;6.60;;
19038;SDS011;9652;49.014;12.052;2023-03-30T07:06:18;9.70;;;7.07;;
19038;SDS011;9652;49.014;12.052;2023-03-30T07:08:47;10.43;;;6.70;;
19038;SDS011;9652;49.014;12.052;2023-03-30T07:11:19;10.17;;;6.93;;
19038;SDS011;9652;49.014;12.052;2023-03-30T07:13:48;10.67;;;7.10;;
19038;SDS011;9652;49.014;12.052;2023-03-30T07:16:17;10.37;;;6.87;;
19038;SDS011;9652;49.014;12.052;2023-03-30T07:18:45;10.60;;;6.73;;
19038;SDS011;9652;49.014;12.052;2023-03-30T07:21:12;9.87;;;6.97;;
19038;SDS011;9652;49.014;12.052;2023-03-30T07:23:40;9.73;;;7.07;;
19038;SDS011;9652;49.014;12.052;2023-03-30T07:26:11;10.37;;;7.60;;
19038;SDS011;9652;49.014;12.052;2023-03-30T07:28:47;7.87;;;5.90;;
19038;SDS011;9652;49.014;12.052;2023-03-30T07:31:15;9.63;;;6.77;;
19038;SDS011;9652;49.014;12.052;2023-03-30T07:33:45;10.20;;;6.73;;
19038;SDS011;9652;49.014;12.052;2023-03-30T07:36:17;9.20;;;7.23;;
19038;SDS011;9652;49.014;12.052;2023-03-30T07:38:45;9.60;;;7.13;;
19038;SDS011;9652;49.014;12.052;2023-03-30T07:41:13;9.73;;;6.73;;
19038;SDS011;9652;49.014;12.052;2023-03-30T07:43:45;8.73;;;6.43;;
19038;SDS011;9652;49.014;12.052;2023-03-30T07:46:13;7.43;;;5.87;;
19038;SDS011;9652;49.014;12.052;2023-03-30T07:48:46;8.60;;;6.60;;
19038;SDS011;9652;49.014;12.052;2023-03-30T07:51:13;7.70;;;6.90;;
19038;SDS011;9652;49.014;12.052;2023-03-30T07:53:51;8.20;;;6.23;;
19038;SDS011;9652;49.014;12.052;2023-03-30T07:56:24;11.93;;;6.63;;
19038;SDS011;9652;49.014;12.052;2023-03-30T07:58:53;10.33;;;7.43;;
19038;SDS011;9652;49.014;12.052;2023-03-30T08:01:26;9.63;;;6.37;;
19038;SDS011;9652;49.014;12.052;2023-03-30T08:04:11;10.00;;;6.50;;
19038;SDS011;9652;49.014;12.052;2023-03-30T08:06:39;11.13;;;6.70;;
19038;SDS011;9652;49.014;12.052;2023-03-30T08:09:06;8.60;;;6.10;;
19038;SDS011;9652;49.014;12.052;2023-03-30T08:11:33;7.93;;;6.20;;
19038;SDS011;9652;49.014;12.052;2023-03-30T08:14:01;9.17;;;6.43;;
19038;SDS011;9652;49.014;12.052;2023-03-30T08:16:28;7.67;;;6.10;;
19038;SDS011;9652;49.014;12.052;2023-03-30T08:18:55;8.47;;;6.70;;
19038;SDS011;9652;49.014;12.052;2023-03-30T08:21:24;7.70;;;5.83;;
19038;SDS011;9652;49.014;12.052;2023-03-30T08:23:51;8.17;;;6.07;;
19038;SDS011;9652;49.014;12.052;2023-03-30T08:26:20;9.67;;;6.63;;
19038;SDS011;9652;49.014;12.052;2023-03-30T08:28:47;9.43;;;6.70;;
19038;SDS011;9652;49.014;12.052;2023-03-30T08:31:14;11.10;;;6.70;;
19038;SDS011;9652;49.014;12.052;2023-03-30T08:33:42;9.90;;;6.53;;
19038;SDS011;9652;49.014;12.052;2023-03-30T08:36:09;10.57;;;6.30;;
19038;SDS011;9652;49.014;12.052;2023-03-30T08:38:39;9.07;;;6.40;;
19038;SDS011;9652;49.014;12.052;2023-03-30T08:41:14;7.63;;;6.37;;
19038;SDS011;9652;49.014;12.052;2023-03-30T08:44:20;9.10;;;6.03;;
19038;SDS011;9652;49.014;12.052;2023-03-30T08:47:00;8.20;;;6.57;;
19038;SDS011;9652;49.014;12.052;2023-03-30T08:49:32;10.43;;;6.27;;
19038;SDS011;9652;49.014;12.052;2023-03-30T08:52:06;8.67;;;6.80;;
19038;SDS011;9652;49.014;12.052;2023-03-30T08:54:42;9.93;;;6.47;;
19038;SDS011;9652;49.014;12.052;2023-03-30T08:57:11;9.37;;;6.97;;
19038;SDS011;9652;49.014;12.052;2023-03-30T08:59:56;7.73;;;5.97;;
19038;SDS011;9652;49.014;12.052;2023-03-30T09:02:42;8.40;;;6.43;;
19038;SDS011;9652;49.014;12.052;2023-03-30T09:05:15;9.67;;;5.80;;
19038;SDS011;9652;49.014;12.052;2023-03-30T09:07:51;9.40;;;6.27;;
19038;SDS011;9652;49.014;12.052;2023-03-30T09:10:29;8.57;;;6.00;;
19038;SDS011;9652;49.014;12.052;2023-03-30T09:13:02;10.33;;;6.40;;
19038;SDS011;9652;49.014;12.052;2023-03-30T09:15:32;8.03;;;6.30;;
19038;SDS011;9652;49.014;12.052;2023-03-30T09:18:05;8.93;;;6.67;;
19038;SDS011;9652;49.014;12.052;2023-03-30T09:20:43;11.83;;;6.60;;
19038;SDS011;9652;49.014;12.052;2023-03-30T09:23:13;10.53;;;6.93;;
19038;SDS011;9652;49.014;12.052;2023-03-30T09:25:45;9.30;;;6.10;;
19038;SDS011;9652;49.014;12.052;2023-03-30T09:28:22;8.20;;;6.07;;
19038;SDS011;9652;49.014;12.052;2023-03-30T09:30:59;7.80;;;6.07;;
19038;SDS011;9652;49.014;12.052;2023-03-30T09:33:34;9.63;;;6.50;;
19038;SDS011;9652;49.014;12.052;2023-03-30T09:36:12;12.30;;;6.03;;
19038;SDS011;9652;49.014;12.052;2023-03-30T09:38:42;9.73;;;6.03;;
19038;SDS011;9652;49.014;12.052;2023-03-30T09:41:15;10.13;;;6.17;;
19038;SDS011;9652;49.014;12.052;2023-03-30T09:43:58;7.70;;;5.53;;
19038;SDS011;9652;49.014;12.052;2023-03-30T09:46:27;7.97;;;6.20;;
19038;SDS011;9652;49.014;12.052;2023-03-30T09:48:54;9.53;;;6.03;;
19038;SDS011;9652;49.014;12.052;2023-03-30T09:51:51;7.43;;;6.00;;
19038;SDS011;9652;49.014;12.052;2023-03-30T09:54:21;7.00;;;5.07;;
19038;SDS011;9652;49.014;12.052;2023-03-30T09:56:50;8.10;;;6.17;;
19038;SDS011;9652;49.014;12.052;2023-03-30T09:59:27;7.67;;;5.33;;
19038;SDS011;9652;49.014;12.052;2023-03-30T10:02:16;11.03;;;6.53;;
19038;SDS011;9652;49.014;12.052;2023-03-30T10:05:00;8.97;;;6.10;;
19038;SDS011;9652;49.014;12.052;2023-03-30T10:07:32;9.37;;;6.20;;
19038;SDS011;9652;49.014;12.052;2023-03-30T10:10:11;9.70;;;6.87;;
19038;SDS011;9652;49.014;12.052;2023-03-30T10:12:43;9.80;;;6.53;;
19038;SDS011;9652;49.014;12.052;2023-03-30T10:15:13;8.57;;;6.10;;
19038;SDS011;9652;49.014;12.052;2023-03-30T10:17:43;9.50;;;6.47;;
19038;SDS011;9652;49.014;12.052;2023-03-30T10:20:14;9.73;;;6.30;;
19038;SDS011;9652;49.014;12.052;2023-03-30T10:22:50;12.20;;;6.37;;
19038;SDS011;9652;49.014;12.052;2023-03-30T10:25:20;8.57;;;6.47;;
19038;SDS011;9652;49.014;12.052;2023-03-30T10:27:50;10.67;;;7.07;;
19038;SDS011;9652;49.014;12.052;2023-03-30T10:30:22;10.07;;;6.23;;
19038;SDS011;9652;49.014;12.052;2023-03-30T10:32:53;9.43;;;6.37;;
19038;SDS011;9652;49.014;12.052;2023-03-30T10:35:24;12.23;;;7.23;;
19038;SDS011;9652;49.014;12.052;2023-03-30T10:37:58;10.97;;;7.27;;
19038;SDS011;9652;49.014;12.052;2023-03-30T10:40:31;11.30;;;6.33;;
19038;SDS011;9652;49.014;12.052;2023-03-30T10:43:02;10.53;;;6.90;;
19038;SDS011;9652;49.014;12.052;2023-03-30T10:45:38;13.17;;;7.97;;
19038;SDS011;9652;49.014;12.052;2023-03-30T10:48:24;13.30;;;7.50;;
19038;SDS011;9652;49.014;12.052;2023-03-30T10:51:09;9.43;;;6.90;;
19038;SDS011;9652;49.014;12.052;2023-03-30T10:53:46;11.83;;;7.03;;
19038;SDS011;9652;49.014;12.052;2023-03-30T10:56:25;10.37;;;6.93;;
19038;SDS011;9652;49.014;12.052;2023-03-30T11:02:20;11.60;;;7.00;;
19038;SDS011;9652;49.014;12.052;2023-03-30T11:05:14;15.40;;;6.60;;
19038;SDS011;9652;49.014;12.052;2023-03-30T11:07:45;9.20;;;6.57;;
19038;SDS011;9652;49.014;12.052;2023-03-30T11:10:18;9.70;;;6.00;;
19038;SDS011;9652;49.014;12.052;2023-03-30T11:12:53;10.37;;;6.30;;
19038;SDS011;9652;49.014;12.052;2023-03-30T11:15:26;11.33;;;6.70;;
19038;SDS011;9652;49.014;12.052;2023-03-30T11:18:02;8.93;;;6.83;;
19038;SDS011;9652;49.014;12.052;2023-03-30T11:20:38;10.60;;;6.30;;
19038;SDS011;9652;49.014;12.052;2023-03-30T11:23:12;8.33;;;6.43;;
19038;SDS011;9652;49.014;12.052;2023-03-30T11:25:51;8.37;;;6.50;;
19038;SDS011;9652;49.014;12.052;2023-03-30T11:28:31;10.43;;;6.60;;
19038;SDS011;9652;49.014;12.052;2023-03-30T11:31:25;7.83;;;6.73;;
19038;SDS011;9652;49.014;12.052;2023-03-30T11:34:08;11.37;;;6.50;;
19038;SDS011;9652;49.014;12.052;2023-03-30T11:36:47;9.20;;;6.23;;
19038;SDS011;9652;49.014;12.052;2023-03-30T11:39:26;11.47;;;6.60;;
19038;SDS011;9652;49.014;12.052;2023-03-30T11:42:02;10.77;;;7.30;;
19038;SDS011;9652;49.014;12.052;2023-03-30T11:44:40;10.00;;;6.63;;
19038;SDS011;9652;49.014;12.052;2023-03-30T11:47:28;10.00;;;6.67;;
19038;SDS011;9652;49.014;12.052;2023-03-30T11:53:10;10.50;;;6.63;;
19038;SDS011;9652;49.014;12.052;2023-03-30T11:56:03;7.13;;;6.00;;
19038;SDS011;9652;49.014;12.052;2023-03-30T11:58:36;11.30;;;6.30;;
19038;SDS011;9652;49.014;12.052;2023-03-30T12:01:12;11.77;;;6.67;;
19038;SDS011;9652;49.014;12.052;2023-03-30T12:04:04;7.73;;;6.40;;
19038;SDS011;9652;49.014;12.052;2023-03-30T12:06:37;8.67;;;6.00;;
19038;SDS011;9652;49.014;12.052;2023-03-30T12:09:15;9.83;;;6.60;;
19038;SDS011;9652;49.014;12.052;2023-03-30T12:11:50;10.90;;;6.43;;
19038;SDS011;9652;49.014;12.052;2023-03-30T12:14:33;8.20;;;6.33;;
19038;SDS011;9652;49.014;12.052;2023-03-30T12:17:14;16.47;;;7.30;;
19038;SDS011;9652;49.014;12.052;2023-03-30T12:19:59;7.97;;;6.40;;
19038;SDS011;9652;49.014;12.052;2023-03-30T12:22:38;8.70;;;6.50;;
19038;SDS011;9652;49.014;12.052;2023-03-30T12:25:17;6.70;;;5.80;;
19038;SDS011;9652;49.014;12.052;2023-03-30T12:27:59;11.07;;;7.13;;
19038;SDS011;9652;49.014;12.052;2023-03-30T12:30:40;8.67;;;6.27;;
19038;SDS011;9652;49.014;12.052;2023-03-30T12:33:22;8.30;;;5.70;;
19038;SDS011;9652;49.014;12.052;2023-03-30T12:35:58;8.23;;;5.47;;
19038;SDS011;9652;49.014;12.052;2023-03-30T12:38:33;9.37;;;6.57;;
19038;SDS011;9652;49.014;12.052;2023-03-30T12:41:04;8.90;;;6.07;;
19038;SDS011;9652;49.014;12.052;2023-03-30T12:47:09;7.80;;;5.13;;
19038;SDS011;9652;49.014;12.052;2023-03-30T12:49:58;9.87;;;5.33;;
19038;SDS011;9652;49.014;12.052;2023-03-30T12:53:05;6.20;;;4.30;;
19038;SDS011;9652;49.014;12.052;2023-03-30T12:55:54;8.63;;;4.77;;
19038;SDS011;9652;49.014;12.052;2023-03-30T12:58:38;14.47;;;4.50;;
19038;SDS011;9652;49.014;12.052;2023-03-30T13:04:38;6.00;;;4.27;;
19038;SDS011;9652;49.014;12.052;2023-03-30T13:07:12;6.23;;;3.40;;
19038;SDS011;9652;49.014;12.052;2023-03-30T13:09:52;7.90;;;3.60;;
19038;SDS011;9652;49.014;12.052;2023-03-30T13:12:32;7.00;;;3.10;;
19038;SDS011;9652;49.014;12.052;2023-03-30T13:15:17;8.80;;;3.80;;
19038;SDS011;9652;49.014;12.052;2023-03-30T13:17:59;6.33;;;3.60;;
19038;SDS011;9652;49.014;12.052;2023-03-30T13:20:32;5.23;;;3.60;;
19038;SDS011;9652;49.014;12.052;2023-03-30T13:23:22;6.10;;;3.00;;
19038;SDS011;9652;49.014;12.052;2023-03-30T13:26:03;4.97;;;3.10;;
19038;SDS011;9652;49.014;12.052;2023-03-30T13:28:53;7.33;;;2.93;;
19038;SDS011;9652;49.014;12.052;2023-03-30T13:31:35;2.50;;;2.20;;
19038;SDS011;9652;49.014;12.052;2023-03-30T13:34:19;5.10;;;2.53;;
19038;SDS011;9652;49.014;12.052;2023-03-30T13:37:02;5.43;;;2.67;;
19038;SDS011;9652;49.014;12.052;2023-03-30T13:39:46;4.00;;;2.47;;
19038;SDS011;9652;49.014;12.052;2023-03-30T13:42:36;4.97;;;2.10;;
19038;SDS011;9652;49.014;12.052;2023-03-30T13:45:27;3.67;;;2.00;;
19038;SDS011;9652;49.014;12.052;2023-03-30T13:48:18;3.37;;;1.90;;
19038;SDS011;9652;49.014;12.052;2023-03-30T13:51:01;6.33;;;2.43;;
19038;SDS011;9652;49.014;12.052;2023-03-30T13:53:30;3.53;;;2.07;;
19038;SDS011;9652;49.014;12.052;2023-03-30T13:56:04;3.23;;;2.03;;
19038;SDS011;9652;49.014;12.052;2023-03-30T13:58:35;4.53;;;2.13;;
19038;SDS011;9652;49.014;12.052;2023-03-30T14:01:06;3.00;;;2.27;;
19038;SDS011;9652;49.014;12.052;2023-03-30T14:03:37;2.37;;;1.83;;
19038;SDS011;9652;49.014;12.052;2023-03-30T14:06:14;3.17;;;2.13;;
19038;SDS011;9652;49.014;12.052;2023-03-30T14:08:45;4.30;;;2.00;;
19038;SDS011;9652;49.014;12.052;2023-03-30T14:11:15;5.07;;;1.93;;
19038;SDS011;9652;49.014;12.052;2023-03-30T14:13:48;3.13;;;2.23;;
19038;SDS011;9652;49.014;12.052;2023-03-30T14:16:18;9.13;;;2.03;;
19038;SDS011;9652;49.014;12.052;2023-03-30T14:18:48;3.47;;;1.57;;
19038;SDS011;9652;49.014;12.052;2023-03-30T14:21:16;4.37;;;1.70;;
19038;SDS011;9652;49.014;12.052;2023-03-30T14:23:46;1.97;;;1.67;;
19038;SDS011;9652;49.014;12.052;2023-03-30T14:26:18;3.47;;;1.80;;
19038;SDS011;9652;49.014;12.052;2023-03-30T14:28:54;2.57;;;1.70;;
19038;SDS011;9652;49.014;12.052;2023-03-30T14:31:22;4.27;;;1.90;;
19038;SDS011;9652;49.014;12.052;2023-03-30T14:33:52;5.63;;;2.10;;
19038;SDS011;9652;49.014;12.052;2023-03-30T14:36:19;4.87;;;2.17;;
19038;SDS011;9652;49.014;12.052;2023-03-30T14:38:48;5.77;;;2.03;;
19038;SDS011;9652;49.014;12.052;2023-03-30T14:41:19;3.53;;;1.80;;
19038;SDS011;9652;49.014;12.052;2023-03-30T14:43:50;6.90;;;2.27;;
19038;SDS011;9652;49.014;12.052;2023-03-30T14:46:22;2.43;;;1.70;;
19038;SDS011;9652;49.014;12.052;2023-03-30T14:48:52;3.67;;;1.90;;
19038;SDS011;9652;49.014;12.052;2023-03-30T14:51:21;2.40;;;1.73;;
19038;SDS011;9652;49.014;12.052;2023-03-30T14:53:51;3.53;;;2.27;;
19038;SDS011;9652;49.014;12.052;2023-03-30T14:56:20;5.23;;;2.30;;
19038;SDS011;9652;49.014;12.052;2023-03-30T14:58:48;4.60;;;2.13;;
19038;SDS011;9652;49.014;12.052;2023-03-30T15:01:19;6.13;;;2.37;;
19038;SDS011;9652;49.014;12.052;2023-03-30T15:03:55;2.77;;;2.17;;
19038;SDS011;9652;49.014;12.052;2023-03-30T15:06:26;4.33;;;2.53;;
19038;SDS011;9652;49.014;12.052;2023-03-30T15:08:58;2.93;;;2.20;;
19038;SDS011;9652;49.014;12.052;2023-03-30T15:11:27;2.37;;;2.00;;
19038;SDS011;9652;49.014;12.052;2023-03-30T15:13:58;3.47;;;2.20;;
19038;SDS011;9652;49.014;12.052;2023-03-30T15:16:31;3.70;;;2.47;;
19038;SDS011;9652;49.014;12.052;2023-03-30T15:19:01;3.73;;;2.17;;
19038;SDS011;9652;49.014;12.052;2023-03-30T15:21:32;3.40;;;2.30;;
19038;SDS011;9652;49.014;12.052;2023-03-30T15:24:03;3.97;;;2.23;;
19038;SDS011;9652;49.014;12.052;2023-03-30T15:26:32;4.07;;;2.43;;
19038;SDS011;9652;49.014;12.052;2023-03-30T15:29:01;4.93;;;2.13;;
19038;SDS011;9652;49.014;12.052;2023-03-30T15:31:31;3.70;;;2.00;;
19038;SDS011;9652;49.014;12.052;2023-03-30T15:33:58;2.57;;;2.20;;
19038;SDS011;9652;49.014;12.052;2023-03-30T15:36:34;2.97;;;1.90;;
19038;SDS011;9652;49.014;12.052;2023-03-30T15:39:15;2.83;;;2.00;;
19038;SDS011;9652;49.014;12.052;2023-03-30T15:41:46;2.10;;;1.90;;
19038;SDS011;9652;49.014;12.052;2023-03-30T15:44:16;3.27;;;1.60;;
19038;SDS011;9652;49.014;12.052;2023-03-30T15:46:45;2.13;;;1.53;;
19038;SDS011;9652;49.014;12.052;2023-03-30T15:49:16;3.10;;;1.73;;
19038;SDS011;9652;49.014;12.052;2023-03-30T15:51:49;5.03;;;2.73;;
19038;SDS011;9652;49.014;12.052;2023-03-30T15:54:18;3.20;;;1.97;;